Florencio Varela, Argentina
Current Conditions -  °F | °C
As of 12:00 AM on Monday 24 Nov 2014 (Local Time) from SAEZ Reporting Station
Clear Clear  
Wind Chill: 75°   Ceiling: Unl
Heat Index: 75°   Visibility: 6mi
Dew Point: 55°   Wind: 14mph
Humidity: 50%   Direction: 360°N
Pressure: 29.74"   Gusts: NA
Location:  34.82°S, 58.28°W
Report Text: SAEZ 240300Z 36012KT 320V030 CAVOK 24/13 Q1007
Loading
Personal Weather Stations






























Interactive Weather Map New forecast layout! Learn more

10-Day Weather Forecast

Advertisements
Track Severe Weather on mobile